Time;durP1;ratioP1;P1;durP2;ratioP2;P2;SDS_P1;SDS_P2;PMS_P1;PMS_P2;Temp;Humidity;BMP_temperature;BMP_pressure;BME280_temperature;BME280_humidity;BME280_pressure;Samples;Min_cycle;Max_cycle;Signal;HPM_P1;HPM_P2
2022/03/24 00:01:38;;;;;;;20.13;15.07;;;;;;;;;;5053635;28;20219;-78
2022/03/24 00:04:09;;;;;;;18.77;14.50;;;;;;;;;;5058014;28;20239;-79
2022/03/24 00:06:37;;;;;;;22.27;15.87;;;;;;;;;;5053556;28;20205;-79
2022/03/24 00:09:05;;;;;;;20.90;15.70;;;;;;;;;;5057518;28;20222;-79
2022/03/24 00:11:32;;;;;;;20.47;14.93;;;;;;;;;;5054739;28;20288;-79
2022/03/24 00:13:59;;;;;;;19.27;15.83;;;;;;;;;;5056357;28;20272;-78
2022/03/24 00:16:27;;;;;;;21.93;16.07;;;;;;;;;;5054679;28;20300;-79
2022/03/24 00:18:54;;;;;;;18.83;15.70;;;;;;;;;;5060057;28;20224;-79
2022/03/24 00:21:21;;;;;;;19.07;15.53;;;;;;;;;;5053424;28;20209;-79
2022/03/24 00:23:50;;;;;;;22.77;16.83;;;;;;;;;;5056218;28;20199;-79
2022/03/24 00:26:18;;;;;;;20.87;15.43;;;;;;;;;;5053228;28;20229;-79
2022/03/24 00:28:45;;;;;;;19.73;15.13;;;;;;;;;;5056947;28;20264;-79
2022/03/24 00:31:12;;;;;;;20.07;16.27;;;;;;;;;;5054645;28;20296;-78
2022/03/24 00:33:40;;;;;;;20.43;15.83;;;;;;;;;;5055039;28;20232;-79
2022/03/24 00:36:07;;;;;;;24.43;16.03;;;;;;;;;;5055002;28;20801;-79
2022/03/24 00:38:34;;;;;;;19.13;14.87;;;;;;;;;;5054988;28;20280;-79
2022/03/24 00:41:03;;;;;;;19.57;14.50;;;;;;;;;;5055330;28;20204;-79
2022/03/24 00:43:30;;;;;;;19.90;14.87;;;;;;;;;;5054072;28;20292;-79
2022/03/24 00:45:58;;;;;;;18.27;14.03;;;;;;;;;;5051439;28;20786;-79
2022/03/24 00:48:26;;;;;;;18.83;15.80;;;;;;;;;;5052317;28;20206;-79
2022/03/24 00:50:53;;;;;;;19.57;14.50;;;;;;;;;;5051984;28;20292;-79
2022/03/24 00:53:20;;;;;;;19.60;15.77;;;;;;;;;;5052552;28;20746;-78
2022/03/24 00:55:48;;;;;;;20.60;15.33;;;;;;;;;;5057493;28;20216;-79
2022/03/24 00:58:16;;;;;;;18.73;14.90;;;;;;;;;;5052447;28;20241;-79
2022/03/24 01:00:44;;;;;;;23.10;15.87;;;;;;;;;;5055887;28;20208;-79
2022/03/24 01:03:11;;;;;;;20.23;15.63;;;;;;;;;;5055759;28;20197;-79
2022/03/24 01:05:38;;;;;;;21.33;15.60;;;;;;;;;;5053623;28;20236;-78
2022/03/24 01:08:08;;;;;;;19.83;15.67;;;;;;;;;;5054884;28;20213;-79
2022/03/24 01:10:35;;;;;;;21.83;15.97;;;;;;;;;;5053450;28;20228;-79
2022/03/24 01:13:03;;;;;;;18.27;14.83;;;;;;;;;;5052511;28;20232;-78
2022/03/24 01:15:32;;;;;;;21.03;16.67;;;;;;;;;;5052205;28;20225;-79
2022/03/24 01:18:00;;;;;;;21.37;15.27;;;;;;;;;;5052381;28;20205;-79
2022/03/24 01:20:28;;;;;;;23.37;16.93;;;;;;;;;;5052191;28;20278;-78
2022/03/24 01:22:55;;;;;;;19.50;16.10;;;;;;;;;;5052566;28;20350;-79
2022/03/24 01:25:24;;;;;;;20.67;16.17;;;;;;;;;;5052811;28;20220;-79
2022/03/24 01:27:52;;;;;;;22.33;17.00;;;;;;;;;;5052666;28;20209;-79
2022/03/24 01:30:19;;;;;;;20.60;16.00;;;;;;;;;;5058121;28;20222;-79
2022/03/24 01:32:48;;;;;;;22.00;16.20;;;;;;;;;;5053796;28;20209;-79
2022/03/24 01:35:16;;;;;;;19.03;15.50;;;;;;;;;;5053968;28;20235;-79
2022/03/24 01:37:44;;;;;;;19.10;15.73;;;;;;;;;;5052968;28;20300;-79
2022/03/24 01:40:12;;;;;;;21.67;16.23;;;;;;;;;;5053791;28;20201;-79
2022/03/24 01:42:40;;;;;;;19.27;15.60;;;;;;;;;;5053197;28;20205;-79
2022/03/24 01:45:08;;;;;;;20.23;15.60;;;;;;;;;;5056158;28;20225;-78
2022/03/24 01:47:35;;;;;;;21.13;16.27;;;;;;;;;;5076201;28;20209;-78
2022/03/24 01:50:05;;;;;;;20.37;16.23;;;;;;;;;;5059719;28;20693;-79
2022/03/24 01:52:32;;;;;;;18.33;15.87;;;;;;;;;;5058584;28;20200;-79
2022/03/24 01:55:00;;;;;;;21.00;15.30;;;;;;;;;;5058677;28;20312;-78
2022/03/24 01:57:29;;;;;;;21.03;15.17;;;;;;;;;;5056380;28;20201;-78
2022/03/24 01:59:57;;;;;;;19.00;16.07;;;;;;;;;;5058009;28;20216;-78
2022/03/24 02:02:24;;;;;;;19.37;16.30;;;;;;;;;;5058922;28;20201;-78
2022/03/24 02:04:51;;;;;;;18.37;14.97;;;;;;;;;;5058386;28;20231;-78
2022/03/24 02:07:20;;;;;;;20.30;16.37;;;;;;;;;;5057543;28;20300;-78
2022/03/24 02:09:47;;;;;;;22.57;16.63;;;;;;;;;;5054524;28;20224;-77
2022/03/24 02:12:15;;;;;;;23.03;16.53;;;;;;;;;;5053227;28;20292;-78
2022/03/24 02:17:20;;;;;;;21.07;16.23;;;;;;;;;;5048829;28;20255;-78
2022/03/24 02:19:47;;;;;;;24.07;17.50;;;;;;;;;;5055247;28;20205;-78
2022/03/24 02:22:16;;;;;;;21.27;16.40;;;;;;;;;;5063787;28;20209;-80
2022/03/24 02:24:45;;;;;;;22.23;16.03;;;;;;;;;;5075732;28;20201;-78
2022/03/24 02:27:13;;;;;;;22.03;16.10;;;;;;;;;;5045920;28;20194;-79
2022/03/24 02:29:40;;;;;;;21.43;15.93;;;;;;;;;;5040904;28;20218;-79
2022/03/24 02:32:11;;;;;;;21.67;16.03;;;;;;;;;;5040563;28;20203;-80
2022/03/24 02:34:40;;;;;;;20.67;15.60;;;;;;;;;;5039025;28;20210;-79
2022/03/24 02:37:08;;;;;;;21.60;16.33;;;;;;;;;;5036375;28;20228;-79
2022/03/24 02:39:38;;;;;;;19.40;15.93;;;;;;;;;;5038859;28;20206;-79
2022/03/24 02:42:06;;;;;;;20.93;17.17;;;;;;;;;;5037828;28;20274;-78
2022/03/24 02:44:33;;;;;;;21.27;17.00;;;;;;;;;;5038147;28;20264;-79
2022/03/24 02:47:02;;;;;;;20.23;16.13;;;;;;;;;;5038131;28;20253;-79
2022/03/24 02:49:30;;;;;;;22.67;15.73;;;;;;;;;;5038814;28;20209;-78
2022/03/24 02:51:59;;;;;;;22.43;16.43;;;;;;;;;;5038013;28;20210;-79
2022/03/24 02:54:27;;;;;;;21.60;16.93;;;;;;;;;;5039058;28;20228;-80
2022/03/24 02:56:55;;;;;;;23.27;17.30;;;;;;;;;;5038527;28;20295;-79
2022/03/24 02:59:23;;;;;;;23.93;16.50;;;;;;;;;;5038706;28;20213;-79
2022/03/24 03:01:53;;;;;;;20.33;16.33;;;;;;;;;;5037929;28;20263;-79
2022/03/24 03:04:21;;;;;;;23.80;16.60;;;;;;;;;;5038772;28;20221;-79
2022/03/24 03:06:48;;;;;;;22.13;17.23;;;;;;;;;;5037422;28;20225;-79
2022/03/24 03:09:17;;;;;;;20.13;16.50;;;;;;;;;;5039355;28;20276;-79
2022/03/24 03:11:45;;;;;;;21.60;16.10;;;;;;;;;;5037972;28;20221;-79
2022/03/24 03:14:14;;;;;;;22.73;17.10;;;;;;;;;;5040066;28;20277;-79
2022/03/24 03:16:42;;;;;;;19.90;15.27;;;;;;;;;;5041326;28;20284;-79
2022/03/24 03:19:09;;;;;;;22.40;16.83;;;;;;;;;;5036378;28;20213;-79
2022/03/24 03:21:37;;;;;;;22.33;16.63;;;;;;;;;;5036420;28;20288;-79
2022/03/24 03:24:04;;;;;;;20.73;16.40;;;;;;;;;;5038198;28;20194;-79
2022/03/24 03:26:31;;;;;;;23.87;17.27;;;;;;;;;;5036633;28;20222;-79
2022/03/24 03:28:59;;;;;;;20.17;15.97;;;;;;;;;;5032400;28;20212;-79
2022/03/24 03:31:28;;;;;;;22.77;16.13;;;;;;;;;;5035998;28;20224;-80
2022/03/24 03:33:55;;;;;;;22.63;17.03;;;;;;;;;;5038235;28;20217;-79
2022/03/24 03:36:23;;;;;;;22.50;16.67;;;;;;;;;;5037101;28;20358;-79
2022/03/24 03:38:50;;;;;;;21.70;17.00;;;;;;;;;;5037647;28;20278;-79
2022/03/24 03:41:21;;;;;;;22.03;16.33;;;;;;;;;;5036014;28;20204;-79
2022/03/24 03:43:48;;;;;;;22.50;17.10;;;;;;;;;;5037682;28;20233;-79
2022/03/24 03:46:16;;;;;;;22.43;16.43;;;;;;;;;;5037558;28;20229;-79
2022/03/24 03:48:45;;;;;;;22.10;17.07;;;;;;;;;;5037449;28;20213;-79
2022/03/24 03:51:13;;;;;;;23.17;16.90;;;;;;;;;;5036566;28;20222;-78
2022/03/24 03:53:41;;;;;;;23.33;17.33;;;;;;;;;;5029510;28;20262;-79
2022/03/24 03:56:08;;;;;;;19.70;15.90;;;;;;;;;;5035491;28;20227;-79
2022/03/24 03:58:36;;;;;;;20.20;16.03;;;;;;;;;;5036946;28;20209;-78
2022/03/24 04:01:03;;;;;;;20.30;16.97;;;;;;;;;;5036264;28;20209;-79
2022/03/24 04:03:31;;;;;;;24.33;17.00;;;;;;;;;;5037183;28;20201;-79
2022/03/24 04:06:00;;;;;;;24.17;17.53;;;;;;;;;;5037265;28;20225;-79
2022/03/24 04:08:28;;;;;;;22.63;17.40;;;;;;;;;;5037485;28;20288;-79
2022/03/24 04:10:56;;;;;;;23.40;15.83;;;;;;;;;;5032322;28;20226;-79
2022/03/24 04:13:23;;;;;;;24.37;17.10;;;;;;;;;;5045012;28;20229;-80
2022/03/24 04:15:54;;;;;;;24.00;17.50;;;;;;;;;;5045073;28;20238;-80
2022/03/24 04:18:22;;;;;;;25.50;17.50;;;;;;;;;;5038456;28;20205;-79
2022/03/24 04:20:49;;;;;;;24.63;16.53;;;;;;;;;;5036474;28;20199;-79
2022/03/24 04:23:19;;;;;;;19.97;16.30;;;;;;;;;;5034536;28;20236;-79
2022/03/24 04:25:46;;;;;;;22.17;16.60;;;;;;;;;;5036180;28;20252;-79
2022/03/24 04:28:14;;;;;;;22.83;16.57;;;;;;;;;;5037081;28;20216;-80
2022/03/24 04:30:42;;;;;;;19.90;16.20;;;;;;;;;;5033469;28;20218;-79
2022/03/24 04:33:10;;;;;;;23.20;18.03;;;;;;;;;;5043891;28;20244;-78
2022/03/24 04:35:37;;;;;;;23.00;16.97;;;;;;;;;;5038106;28;20222;-79
2022/03/24 04:38:05;;;;;;;26.40;18.60;;;;;;;;;;5037017;28;20236;-78
2022/03/24 04:40:33;;;;;;;25.17;16.90;;;;;;;;;;5036339;28;20285;-78
2022/03/24 04:43:01;;;;;;;23.53;16.90;;;;;;;;;;5035545;28;20293;-79
2022/03/24 04:45:29;;;;;;;24.60;17.97;;;;;;;;;;5035166;28;20218;-79
2022/03/24 04:47:56;;;;;;;25.30;17.27;;;;;;;;;;5036378;28;20220;-79
2022/03/24 04:50:24;;;;;;;24.67;17.67;;;;;;;;;;5035712;28;20209;-79
2022/03/24 04:52:51;;;;;;;22.27;17.47;;;;;;;;;;5036737;28;20297;-79
2022/03/24 04:55:18;;;;;;;24.47;17.80;;;;;;;;;;5034805;28;20230;-79
2022/03/24 04:57:47;;;;;;;23.17;17.50;;;;;;;;;;5033033;28;20197;-79
2022/03/24 05:00:18;;;;;;;23.67;18.03;;;;;;;;;;5035758;28;20233;-79
2022/03/24 05:02:45;;;;;;;26.43;19.43;;;;;;;;;;5031888;28;20206;-79
2022/03/24 05:05:13;;;;;;;25.90;18.87;;;;;;;;;;5036024;28;20287;-78
2022/03/24 05:07:41;;;;;;;28.03;19.20;;;;;;;;;;5033800;28;20221;-80
2022/03/24 05:10:09;;;;;;;28.80;18.47;;;;;;;;;;5034837;28;20205;-79
2022/03/24 05:12:39;;;;;;;25.03;18.83;;;;;;;;;;5036198;28;20232;-80
2022/03/24 05:15:09;;;;;;;27.23;18.30;;;;;;;;;;5037490;28;20201;-80
2022/03/24 05:17:37;;;;;;;24.83;17.80;;;;;;;;;;5037379;28;20297;-80
2022/03/24 05:20:04;;;;;;;23.60;17.23;;;;;;;;;;5038101;28;20283;-80
2022/03/24 05:22:31;;;;;;;27.63;19.20;;;;;;;;;;5041240;28;20292;-79
2022/03/24 05:24:59;;;;;;;26.33;18.17;;;;;;;;;;5043625;28;20221;-79
2022/03/24 05:27:26;;;;;;;26.40;17.33;;;;;;;;;;5050149;28;20218;-80
2022/03/24 05:29:53;;;;;;;23.70;18.00;;;;;;;;;;5038195;28;20211;-78
2022/03/24 05:32:22;;;;;;;27.83;18.23;;;;;;;;;;5036894;28;20313;-80
2022/03/24 05:34:49;;;;;;;25.53;18.80;;;;;;;;;;5035960;28;20676;-78
2022/03/24 05:37:17;;;;;;;22.97;17.93;;;;;;;;;;5037988;28;20208;-79
2022/03/24 05:39:44;;;;;;;22.80;17.30;;;;;;;;;;5032324;28;20328;-78
2022/03/24 05:42:11;;;;;;;29.33;19.77;;;;;;;;;;5034358;28;20227;-80
2022/03/24 05:44:39;;;;;;;23.43;18.33;;;;;;;;;;5037933;28;20652;-79
2022/03/24 05:47:06;;;;;;;24.57;18.67;;;;;;;;;;5036385;28;20249;-79
2022/03/24 05:49:35;;;;;;;25.73;18.87;;;;;;;;;;5033641;28;20203;-79
2022/03/24 05:52:06;;;;;;;24.90;18.27;;;;;;;;;;5031859;28;20222;-79
2022/03/24 05:54:33;;;;;;;25.73;17.27;;;;;;;;;;5029801;28;20199;-79
2022/03/24 05:57:00;;;;;;;25.60;17.17;;;;;;;;;;5032620;28;20214;-79
2022/03/24 05:59:28;;;;;;;25.17;17.47;;;;;;;;;;5030522;28;20202;-79
2022/03/24 06:01:55;;;;;;;28.23;18.50;;;;;;;;;;5034232;28;20209;-78
2022/03/24 06:04:23;;;;;;;26.30;18.47;;;;;;;;;;5035079;28;20256;-79
2022/03/24 06:06:56;;;;;;;24.57;17.60;;;;;;;;;;5033805;28;20218;-80
2022/03/24 06:09:25;;;;;;;25.13;18.03;;;;;;;;;;5028900;28;20719;-79
2022/03/24 06:11:53;;;;;;;27.27;18.17;;;;;;;;;;5030622;28;20242;-79
2022/03/24 06:14:21;;;;;;;29.00;18.10;;;;;;;;;;5033013;28;20260;-80
2022/03/24 06:16:49;;;;;;;25.23;17.77;;;;;;;;;;5032438;28;20276;-79
2022/03/24 06:19:16;;;;;;;28.33;19.10;;;;;;;;;;5030904;28;20202;-80
2022/03/24 06:21:43;;;;;;;26.17;18.33;;;;;;;;;;5030634;28;20203;-80
2022/03/24 06:24:12;;;;;;;24.13;18.03;;;;;;;;;;5031865;28;20210;-79
2022/03/24 06:26:43;;;;;;;30.13;18.23;;;;;;;;;;5035529;28;20225;-77
2022/03/24 06:29:13;;;;;;;24.33;17.60;;;;;;;;;;5028290;28;20261;-79
2022/03/24 06:31:40;;;;;;;22.70;17.17;;;;;;;;;;5032009;28;20566;-79
2022/03/24 06:34:08;;;;;;;23.33;17.73;;;;;;;;;;5035721;28;20229;-78
2022/03/24 06:36:35;;;;;;;22.67;17.43;;;;;;;;;;5030971;28;20214;-79
2022/03/24 06:39:04;;;;;;;30.73;19.03;;;;;;;;;;5036478;28;20234;-80
2022/03/24 06:41:33;;;;;;;22.60;17.07;;;;;;;;;;5029283;28;20257;-79
2022/03/24 06:44:00;;;;;;;21.77;17.13;;;;;;;;;;5034583;28;20218;-79
2022/03/24 06:46:28;;;;;;;21.43;17.10;;;;;;;;;;5031076;28;20227;-79
2022/03/24 06:48:55;;;;;;;22.37;16.90;;;;;;;;;;5033577;28;20267;-79
2022/03/24 06:51:23;;;;;;;21.43;17.23;;;;;;;;;;5032467;28;20230;-78
2022/03/24 06:53:50;;;;;;;21.17;16.77;;;;;;;;;;5029490;28;20195;-79
2022/03/24 06:56:18;;;;;;;23.00;16.77;;;;;;;;;;5031241;28;20233;-79
2022/03/24 06:58:46;;;;;;;22.67;16.80;;;;;;;;;;5032855;28;20227;-80
2022/03/24 07:01:15;;;;;;;24.13;17.83;;;;;;;;;;5031720;28;20220;-80
2022/03/24 07:03:43;;;;;;;21.80;17.00;;;;;;;;;;5040629;28;20202;-80
2022/03/24 07:06:10;;;;;;;22.27;16.20;;;;;;;;;;5036415;28;20230;-79
2022/03/24 07:08:37;;;;;;;22.17;16.60;;;;;;;;;;5042635;28;20260;-80
2022/03/24 07:11:05;;;;;;;22.83;16.17;;;;;;;;;;5036838;28;20209;-81
2022/03/24 07:13:32;;;;;;;21.20;17.20;;;;;;;;;;5031907;28;20680;-79
2022/03/24 07:16:03;;;;;;;21.80;17.30;;;;;;;;;;5038036;28;20284;-80
2022/03/24 07:18:30;;;;;;;22.20;17.77;;;;;;;;;;5036158;28;20216;-79
2022/03/24 07:20:57;;;;;;;20.87;16.53;;;;;;;;;;5040850;28;20259;-79
2022/03/24 07:23:25;;;;;;;21.37;16.80;;;;;;;;;;5034519;28;20219;-80
2022/03/24 07:25:55;;;;;;;23.37;17.07;;;;;;;;;;5037541;28;20226;-80
2022/03/24 07:28:22;;;;;;;22.87;17.00;;;;;;;;;;5036599;28;20205;-80
2022/03/24 07:30:51;;;;;;;20.83;16.70;;;;;;;;;;5036911;28;20265;-78
2022/03/24 07:33:20;;;;;;;20.63;16.53;;;;;;;;;;5037288;28;20226;-80
2022/03/24 07:35:48;;;;;;;22.53;18.13;;;;;;;;;;5039433;28;20309;-80
2022/03/24 07:38:15;;;;;;;25.17;19.20;;;;;;;;;;5043883;28;20225;-79
2022/03/24 07:40:42;;;;;;;23.50;18.73;;;;;;;;;;5043528;28;20209;-80
2022/03/24 07:43:10;;;;;;;22.97;18.73;;;;;;;;;;5037244;28;20208;-80
2022/03/24 07:45:38;;;;;;;26.10;18.90;;;;;;;;;;5039151;28;20264;-79
2022/03/24 07:48:09;;;;;;;21.00;18.00;;;;;;;;;;5031301;28;20209;-80
2022/03/24 07:50:39;;;;;;;19.03;16.47;;;;;;;;;;5037757;28;20221;-80
2022/03/24 07:53:10;;;;;;;20.23;16.27;;;;;;;;;;5041923;28;20228;-79
2022/03/24 07:55:40;;;;;;;20.43;16.77;;;;;;;;;;5042012;28;20237;-82
2022/03/24 07:58:23;;;;;;;20.30;17.93;;;;;;;;;;5038478;28;20248;-83
2022/03/24 08:00:51;;;;;;;23.40;18.10;;;;;;;;;;5033101;28;20285;-81
2022/03/24 08:03:19;;;;;;;22.70;17.30;;;;;;;;;;5036152;28;20260;-78
2022/03/24 08:05:49;;;;;;;20.47;16.93;;;;;;;;;;5040988;28;20218;-80
2022/03/24 08:08:17;;;;;;;24.10;18.43;;;;;;;;;;5039877;28;20226;-79
2022/03/24 08:10:45;;;;;;;21.10;16.87;;;;;;;;;;5038524;28;20233;-80
2022/03/24 08:13:13;;;;;;;20.90;17.27;;;;;;;;;;5039894;28;20309;-80
2022/03/24 08:15:41;;;;;;;22.43;17.50;;;;;;;;;;5055992;22;20293;-79
2022/03/24 08:18:12;;;;;;;21.03;17.60;;;;;;;;;;5033390;28;20209;-78
2022/03/24 08:20:40;;;;;;;22.00;16.70;;;;;;;;;;5032444;28;20212;-80
2022/03/24 08:23:09;;;;;;;19.63;17.23;;;;;;;;;;5036017;28;20205;-78
2022/03/24 08:25:37;;;;;;;19.60;16.30;;;;;;;;;;5036491;28;20224;-79
2022/03/24 08:28:04;;;;;;;20.00;16.27;;;;;;;;;;5033617;28;20263;-79
2022/03/24 08:30:32;;;;;;;25.40;17.93;;;;;;;;;;5032951;28;20212;-80
2022/03/24 08:33:00;;;;;;;17.83;15.93;;;;;;;;;;5033777;28;20230;-79
2022/03/24 08:35:27;;;;;;;22.70;17.70;;;;;;;;;;5041087;28;20216;-76
2022/03/24 08:37:56;;;;;;;20.70;17.00;;;;;;;;;;5038511;28;20202;-79
2022/03/24 08:40:28;;;;;;;20.30;16.17;;;;;;;;;;5042032;28;20292;-79
2022/03/24 08:42:59;;;;;;;23.97;17.50;;;;;;;;;;5034125;28;20197;-79
2022/03/24 08:45:26;;;;;;;21.03;16.53;;;;;;;;;;5035258;28;20236;-80
2022/03/24 08:47:55;;;;;;;19.87;16.30;;;;;;;;;;5034514;28;20256;-77
2022/03/24 08:50:27;;;;;;;20.83;18.03;;;;;;;;;;5030630;28;20205;-78
2022/03/24 08:52:55;;;;;;;21.93;18.43;;;;;;;;;;5034119;28;20617;-77
2022/03/24 08:55:25;;;;;;;22.33;17.70;;;;;;;;;;5038774;28;20232;-77
2022/03/24 08:57:52;;;;;;;24.10;18.13;;;;;;;;;;5031019;28;20252;-79
2022/03/24 09:00:20;;;;;;;22.47;17.77;;;;;;;;;;5036088;28;20198;-78
2022/03/24 09:02:48;;;;;;;24.40;19.10;;;;;;;;;;5030731;28;20202;-77
2022/03/24 09:05:16;;;;;;;22.53;19.37;;;;;;;;;;5034735;28;20235;-82
2022/03/24 09:07:51;;;;;;;20.67;17.73;;;;;;;;;;5030823;28;20218;-79
2022/03/24 09:10:19;;;;;;;25.80;20.93;;;;;;;;;;5032808;28;20255;-79
2022/03/24 09:12:49;;;;;;;24.83;20.43;;;;;;;;;;5027624;28;20214;-77
2022/03/24 09:15:19;;;;;;;25.33;20.90;;;;;;;;;;5027858;28;20209;-79
2022/03/24 09:17:46;;;;;;;22.47;19.43;;;;;;;;;;5032423;28;20220;-78
2022/03/24 09:20:15;;;;;;;23.33;18.63;;;;;;;;;;5033697;28;20273;-78
2022/03/24 09:22:43;;;;;;;22.63;19.47;;;;;;;;;;5033056;28;20205;-82
2022/03/24 09:25:12;;;;;;;24.40;20.03;;;;;;;;;;5049246;28;20249;-87
2022/03/24 09:27:40;;;;;;;21.57;18.83;;;;;;;;;;5035586;28;20222;-78
2022/03/24 09:30:14;;;;;;;24.07;20.57;;;;;;;;;;5039902;28;20221;-78
2022/03/24 09:32:45;;;;;;;24.37;19.87;;;;;;;;;;5055053;28;20225;-79
2022/03/24 09:35:12;;;;;;;24.70;20.20;;;;;;;;;;5039038;28;20209;-80
2022/03/24 09:37:40;;;;;;;23.03;19.47;;;;;;;;;;5052781;28;20248;-79
2022/03/24 09:40:08;;;;;;;27.37;20.67;;;;;;;;;;5034058;28;20198;-81
2022/03/24 09:42:36;;;;;;;24.60;20.60;;;;;;;;;;5034148;28;20206;-85
2022/03/24 09:45:05;;;;;;;24.70;20.87;;;;;;;;;;5040771;28;20201;-80
2022/03/24 09:47:35;;;;;;;24.10;19.60;;;;;;;;;;5038992;28;20392;-79
2022/03/24 09:50:05;;;;;;;26.63;21.53;;;;;;;;;;5041104;28;20209;-78
2022/03/24 09:52:32;;;;;;;26.73;21.53;;;;;;;;;;5046109;28;20214;-74
2022/03/24 09:55:00;;;;;;;27.23;22.23;;;;;;;;;;5030036;28;20232;-74
2022/03/24 09:57:27;;;;;;;26.43;21.60;;;;;;;;;;5031060;28;20674;-75
2022/03/24 09:59:55;;;;;;;27.47;21.53;;;;;;;;;;5029525;28;20209;-74
2022/03/24 10:02:22;;;;;;;26.17;21.27;;;;;;;;;;5026998;28;20290;-74
2022/03/24 10:04:51;;;;;;;23.47;20.83;;;;;;;;;;5023717;28;20205;-74
2022/03/24 10:07:20;;;;;;;22.90;20.27;;;;;;;;;;5031997;28;20234;-74
2022/03/24 10:09:48;;;;;;;29.67;22.87;;;;;;;;;;5032302;28;20226;-74
2022/03/24 10:12:19;;;;;;;23.63;19.87;;;;;;;;;;5026452;28;20218;-74
2022/03/24 10:14:46;;;;;;;26.23;21.20;;;;;;;;;;5036400;28;20202;-75
2022/03/24 10:17:14;;;;;;;24.13;20.90;;;;;;;;;;5031116;28;20233;-73
2022/03/24 10:19:56;;;;;;;22.83;19.95;;;;;;;;;;5027547;28;20201;-77
2022/03/24 10:22:28;;;;;;;25.15;20.05;;;;;;;;;;5039607;28;20260;-76
2022/03/24 10:24:55;;;;;;;24.37;20.63;;;;;;;;;;5029125;28;20202;-75
2022/03/24 10:27:24;;;;;;;26.25;20.92;;;;;;;;;;5040328;28;20313;-75
2022/03/24 10:29:54;;;;;;;24.17;19.85;;;;;;;;;;5031138;28;20282;-76
2022/03/24 10:32:34;;;;;;;23.77;20.08;;;;;;;;;;5040183;28;20235;-76
2022/03/24 10:35:10;;;;;;;25.60;20.63;;;;;;;;;;5030652;28;20240;-76
2022/03/24 10:37:39;;;;;;;24.75;21.48;;;;;;;;;;5032470;28;20213;-76
2022/03/24 10:40:08;;;;;;;24.42;20.60;;;;;;;;;;5038603;28;20206;-76
2022/03/24 10:42:36;;;;;;;23.75;19.42;;;;;;;;;;5031990;28;20248;-75
2022/03/24 10:45:09;;;;;;;23.60;20.13;;;;;;;;;;5039730;28;20217;-76
2022/03/24 10:47:39;;;;;;;22.50;18.90;;;;;;;;;;5030597;28;20233;-76
2022/03/24 10:50:20;;;;;;;24.73;20.77;;;;;;;;;;5034166;28;20225;-75
2022/03/24 10:52:51;;;;;;;21.27;18.98;;;;;;;;;;5030921;28;20209;-76
2022/03/24 10:55:31;;;;;;;23.48;18.98;;;;;;;;;;5033301;28;20220;-75
2022/03/24 10:58:00;;;;;;;20.15;17.67;;;;;;;;;;5031787;28;20210;-76
2022/03/24 11:00:27;;;;;;;19.88;17.30;;;;;;;;;;5031958;28;20201;-76
2022/03/24 11:02:55;;;;;;;21.85;18.05;;;;;;;;;;5033364;28;20202;-75
2022/03/24 11:05:22;;;;;;;20.33;17.52;;;;;;;;;;5032228;28;20324;-75
2022/03/24 11:07:54;;;;;;;21.15;18.88;;;;;;;;;;5033650;28;20202;-75
2022/03/24 11:10:23;;;;;;;22.20;19.75;;;;;;;;;;5031563;28;20202;-76
2022/03/24 11:12:51;;;;;;;21.65;19.35;;;;;;;;;;5027035;28;20236;-78
2022/03/24 11:15:19;;;;;;;20.08;17.90;;;;;;;;;;5045477;28;20229;-78
2022/03/24 11:17:47;;;;;;;21.20;18.90;;;;;;;;;;5034921;28;20222;-78
2022/03/24 11:20:20;;;;;;;21.02;18.73;;;;;;;;;;5032898;28;20650;-77
2022/03/24 11:22:49;;;;;;;21.13;18.70;;;;;;;;;;5028510;28;20222;-76
2022/03/24 11:25:18;;;;;;;18.25;16.30;;;;;;;;;;5030718;28;20730;-77
2022/03/24 11:27:45;;;;;;;20.13;17.42;;;;;;;;;;5029661;28;20221;-75
2022/03/24 11:30:13;;;;;;;19.42;17.33;;;;;;;;;;5021514;28;20282;-76
2022/03/24 11:32:42;;;;;;;19.27;17.38;;;;;;;;;;5032035;28;20221;-74
2022/03/24 11:35:10;;;;;;;19.95;17.85;;;;;;;;;;5024480;28;20205;-74
2022/03/24 11:37:37;;;;;;;19.73;17.48;;;;;;;;;;5030608;28;20316;-73
2022/03/24 11:40:08;;;;;;;19.23;16.90;;;;;;;;;;5023402;28;20213;-73
2022/03/24 11:42:40;;;;;;;18.55;15.93;;;;;;;;;;5029669;28;20604;-74
2022/03/24 11:45:10;;;;;;;20.40;17.27;;;;;;;;;;5036619;28;20233;-75
2022/03/24 11:47:50;;;;;;;18.98;16.30;;;;;;;;;;5031115;28;20703;-73
2022/03/24 11:50:18;;;;;;;19.73;16.98;;;;;;;;;;5030018;28;20211;-73
2022/03/24 11:52:45;;;;;;;18.52;16.63;;;;;;;;;;5033413;28;20240;-73
2022/03/24 11:55:16;;;;;;;20.30;17.08;;;;;;;;;;5036884;28;20373;-73
2022/03/24 11:58:00;;;;;;;19.10;17.10;;;;;;;;;;5032193;28;20308;-73
2022/03/24 12:00:48;;;;;;;19.65;17.73;;;;;;;;;;5037714;28;20194;-74
2022/03/24 12:03:34;;;;;;;19.75;17.65;;;;;;;;;;5026517;28;20194;-73
2022/03/24 12:06:01;;;;;;;24.85;17.80;;;;;;;;;;5032551;28;20253;-74
2022/03/24 12:08:29;;;;;;;18.85;16.85;;;;;;;;;;5031757;28;20229;-74
2022/03/24 12:10:56;;;;;;;18.55;16.63;;;;;;;;;;5028133;28;20213;-74
2022/03/24 12:13:25;;;;;;;17.75;15.85;;;;;;;;;;5034134;28;20271;-74
2022/03/24 12:16:11;;;;;;;19.58;16.95;;;;;;;;;;5034203;28;20610;-74
2022/03/24 12:18:41;;;;;;;18.83;16.85;;;;;;;;;;5041249;28;20204;-73
2022/03/24 12:21:09;;;;;;;18.20;16.30;;;;;;;;;;5037229;28;20202;-74
2022/03/24 12:23:51;;;;;;;19.17;16.05;;;;;;;;;;5031679;28;20209;-73
2022/03/24 12:26:20;;;;;;;17.02;14.68;;;;;;;;;;5033148;28;20213;-73
2022/03/24 12:29:09;;;;;;;15.38;13.77;;;;;;;;;;5029065;28;20286;-73
2022/03/24 12:31:43;;;;;;;16.20;14.50;;;;;;;;;;5030127;28;20293;-78
2022/03/24 12:34:15;;;;;;;17.90;16.10;;;;;;;;;;5034406;28;20308;-74
2022/03/24 12:36:42;;;;;;;18.80;15.88;;;;;;;;;;5039251;28;20293;-73
2022/03/24 12:39:09;;;;;;;17.60;15.35;;;;;;;;;;5029790;28;20221;-77
2022/03/24 12:41:38;;;;;;;18.83;16.83;;;;;;;;;;5025620;28;20603;-74
2022/03/24 12:44:09;;;;;;;18.13;16.23;;;;;;;;;;5029075;28;20198;-75
2022/03/24 12:46:38;;;;;;;18.65;16.60;;;;;;;;;;5040273;28;20661;-75
2022/03/24 12:49:35;;;;;;;17.20;15.32;;;;;;;;;;5027056;28;20237;-75
2022/03/24 12:52:06;;;;;;;16.08;14.48;;;;;;;;;;5027851;28;20202;-75
2022/03/24 12:54:42;;;;;;;15.70;14.13;;;;;;;;;;5027443;28;20214;-73
2022/03/24 12:57:26;;;;;;;14.65;13.23;;;;;;;;;;5035185;28;20715;-72
2022/03/24 12:59:55;;;;;;;14.82;13.35;;;;;;;;;;5039608;28;20197;-73
2022/03/24 13:02:22;;;;;;;14.80;13.25;;;;;;;;;;5030569;28;20228;-73
2022/03/24 13:04:50;;;;;;;15.23;13.63;;;;;;;;;;5030522;28;20198;-72
2022/03/24 13:07:22;;;;;;;15.38;13.77;;;;;;;;;;5029240;28;20221;-73
2022/03/24 13:10:04;;;;;;;17.83;14.52;;;;;;;;;;5034090;28;20198;-72
2022/03/24 13:12:32;;;;;;;16.55;14.85;;;;;;;;;;5036235;28;20248;-72
2022/03/24 13:15:02;;;;;;;16.55;14.85;;;;;;;;;;5034903;28;20249;-72
2022/03/24 13:17:32;;;;;;;16.48;14.88;;;;;;;;;;5031420;28;20231;-72
2022/03/24 13:20:04;;;;;;;15.98;14.50;;;;;;;;;;5039521;28;20206;-73
2022/03/24 13:22:34;;;;;;;17.23;15.43;;;;;;;;;;5024549;28;20209;-73
2022/03/24 13:25:03;;;;;;;14.65;13.23;;;;;;;;;;5032796;28;20198;-72
2022/03/24 13:27:32;;;;;;;16.70;15.00;;;;;;;;;;5036828;28;20261;-72
2022/03/24 13:30:04;;;;;;;16.52;14.45;;;;;;;;;;5036384;28;20286;-72
2022/03/24 13:32:31;;;;;;;16.10;14.52;;;;;;;;;;5033006;28;20299;-72
2022/03/24 13:35:00;;;;;;;16.25;14.65;;;;;;;;;;5036944;28;20205;-72
2022/03/24 13:37:32;;;;;;;14.73;13.32;;;;;;;;;;5029894;28;20313;-72
2022/03/24 13:39:59;;;;;;;15.48;14.07;;;;;;;;;;5048266;28;20205;-72
2022/03/24 13:42:27;;;;;;;14.27;12.82;;;;;;;;;;5053834;28;20209;-72
2022/03/24 13:44:55;;;;;;;15.68;14.27;;;;;;;;;;5054173;28;20232;-72
2022/03/24 13:47:27;;;;;;;14.45;13.18;;;;;;;;;;5037825;28;20222;-72
2022/03/24 13:49:56;;;;;;;14.73;13.32;;;;;;;;;;5040000;28;20667;-72
2022/03/24 13:52:31;;;;;;;14.88;13.48;;;;;;;;;;5032685;28;20213;-75
2022/03/24 13:55:02;;;;;;;14.85;13.45;;;;;;;;;;5029168;28;20221;-73
2022/03/24 13:57:30;;;;;;;14.55;13.15;;;;;;;;;;5036315;28;20232;-73
2022/03/24 13:59:57;;;;;;;15.13;13.73;;;;;;;;;;5054627;28;20213;-73
2022/03/24 14:02:27;;;;;;;16.00;14.15;;;;;;;;;;5037164;28;20300;-73
2022/03/24 14:05:05;;;;;;;13.82;12.52;;;;;;;;;;5044440;28;20228;-73
2022/03/24 14:07:32;;;;;;;15.30;13.82;;;;;;;;;;5054152;28;20319;-74
2022/03/24 14:10:04;;;;;;;14.63;13.20;;;;;;;;;;5036448;28;20201;-73
2022/03/24 14:12:32;;;;;;;15.30;13.80;;;;;;;;;;5036434;28;20293;-73
2022/03/24 14:15:06;;;;;;;14.65;13.25;;;;;;;;;;5053337;28;20232;-73
2022/03/24 14:17:35;;;;;;;14.93;13.43;;;;;;;;;;4990707;22;20319;-76
2022/03/24 14:20:02;;;;;;;13.80;12.40;;;;;;;;;;4971250;28;20669;-76
2022/03/24 14:22:29;;;;;;;14.38;13.05;;;;;;;;;;4933728;28;20694;-76
2022/03/24 14:24:56;;;;;;;15.10;13.50;;;;;;;;;;4958253;28;20244;-76
2022/03/24 14:27:24;;;;;;;13.70;12.30;;;;;;;;;;4937214;28;20221;-79
2022/03/24 14:30:02;;;;;;;15.80;14.30;;;;;;;;;;4975098;28;20202;-79